Terminal Aerodrome Forecast
Issued by NWS Albany, NY

Home | Current Version | Previous Version | Text Only | Print | Product List | Glossary On
Versions: 1 2 3 4 5 6 7 8 9 10 11 12 13 14 15 16 17 18 19 20 21 22 23 24 25 26 27 28 29 30 31
000
FTUS41 KALY 242300 CCA
TAFGFL
TAF COR
KGFL 242346Z 2500/2524 02005KT P6SM SCT008 OVC015
      TEMPO 2500/2504 SCT015 BKN035
     FM250400 VRB03KT P6SM SCT080
     FM250600 00000KT 2SM BR SCT080
     FM251300 19005KT P6SM SCT200
     FM252000 22008KT P6SM VCSH BKN035=

USA.gov is the U.S. government's official web portal to all federal, state and local government web resources and services.